createdAt,value
2023-04-17T00:01:41.535Z,22.20
2023-04-17T00:04:11.236Z,19.70
2023-04-17T00:06:38.450Z,19.67
2023-04-17T00:09:05.203Z,20.92
2023-04-17T00:11:32.054Z,21.45
2023-04-17T00:13:58.785Z,21.10
2023-04-17T00:16:27.134Z,21.63
2023-04-17T00:18:55.091Z,22.70
2023-04-17T00:21:21.944Z,21.83
2023-04-17T00:23:48.565Z,19.15
2023-04-17T00:26:15.814Z,21.63
2023-04-17T00:28:42.438Z,20.45
2023-04-17T00:31:09.134Z,21.25
2023-04-17T00:33:35.934Z,22.05
2023-04-17T00:36:02.500Z,20.60
2023-04-17T00:38:29.047Z,22.55
2023-04-17T00:40:55.654Z,23.33
2023-04-17T00:43:22.353Z,20.67
2023-04-17T00:45:49.594Z,21.58
2023-04-17T00:48:18.202Z,23.38
2023-04-17T00:50:45.524Z,24.33
2023-04-17T00:53:13.502Z,23.92
2023-04-17T00:55:41.662Z,23.50
2023-04-17T00:58:08.961Z,23.90
2023-04-17T01:00:35.615Z,22.75
2023-04-17T01:03:02.805Z,26.15
2023-04-17T01:05:29.691Z,24.75
2023-04-17T01:07:58.054Z,24.65
2023-04-17T01:10:25.216Z,25.08
2023-04-17T01:13:05.839Z,25.13
2023-04-17T01:15:33.165Z,23.73
2023-04-17T01:18:00.237Z,26.30
2023-04-17T01:20:29.988Z,27.23
2023-04-17T01:22:58.205Z,24.13
2023-04-17T01:25:25.865Z,23.17
2023-04-17T01:27:52.674Z,28.60
2023-04-17T01:30:19.688Z,25.60
2023-04-17T01:32:46.478Z,27.95
2023-04-17T01:35:13.475Z,27.13
2023-04-17T01:37:40.199Z,28.35
2023-04-17T01:40:07.718Z,29.60
2023-04-17T01:42:34.942Z,29.08
2023-04-17T01:45:01.531Z,29.30
2023-04-17T01:47:28.381Z,31.20
2023-04-17T01:49:54.972Z,28.33
2023-04-17T01:52:21.749Z,28.23
2023-04-17T01:54:48.396Z,30.77
2023-04-17T01:57:16.115Z,28.88
2023-04-17T01:59:42.714Z,28.33
2023-04-17T02:02:09.405Z,32.03
2023-04-17T02:04:36.173Z,30.20
2023-04-17T02:07:02.894Z,28.92
2023-04-17T02:09:29.454Z,28.85
2023-04-17T02:11:56.849Z,29.83
2023-04-17T02:14:23.597Z,28.35
2023-04-17T02:16:51.336Z,30.33
2023-04-17T02:19:17.972Z,30.52
2023-04-17T02:21:44.528Z,30.33
2023-04-17T02:24:11.122Z,27.67
2023-04-17T02:26:38.544Z,31.30
2023-04-17T02:29:05.287Z,30.35
2023-04-17T02:31:32.105Z,29.98
2023-04-17T02:33:58.833Z,33.22
2023-04-17T02:36:26.374Z,30.13
2023-04-17T02:38:53.030Z,29.17
2023-04-17T02:41:19.650Z,32.17
2023-04-17T02:43:46.939Z,32.33
2023-04-17T02:46:13.694Z,33.95
2023-04-17T02:48:40.530Z,33.20
2023-04-17T02:51:07.209Z,31.00
2023-04-17T02:53:33.993Z,29.83
2023-04-17T02:56:00.691Z,32.70
2023-04-17T02:58:27.345Z,30.55
2023-04-17T03:01:03.240Z,35.55
2023-04-17T03:03:35.009Z,34.90
2023-04-17T03:06:02.782Z,35.00
2023-04-17T03:08:32.550Z,33.53
2023-04-17T03:10:59.708Z,34.13
2023-04-17T03:13:26.328Z,34.67
2023-04-17T03:15:52.874Z,32.47
2023-04-17T03:18:19.477Z,34.78
2023-04-17T03:20:46.202Z,34.45
2023-04-17T03:23:12.830Z,32.72
2023-04-17T03:25:39.542Z,35.53
2023-04-17T03:28:06.233Z,33.22
2023-04-17T03:30:33.426Z,36.03
2023-04-17T03:33:00.239Z,30.98
2023-04-17T03:35:27.753Z,33.10
2023-04-17T03:37:54.623Z,33.35
2023-04-17T03:40:21.304Z,32.90
2023-04-17T03:42:48.487Z,35.60
2023-04-17T03:45:16.808Z,35.25
2023-04-17T03:47:43.622Z,32.50
2023-04-17T03:50:10.764Z,34.35
2023-04-17T03:52:38.575Z,35.25
2023-04-17T03:55:05.864Z,33.00
2023-04-17T03:57:32.670Z,34.13
2023-04-17T03:59:59.433Z,34.13
2023-04-17T04:02:26.351Z,36.13
2023-04-17T04:04:53.724Z,32.05
2023-04-17T04:07:21.380Z,35.33
2023-04-17T04:09:48.336Z,31.27
2023-04-17T04:12:15.229Z,33.92
2023-04-17T04:14:42.175Z,32.58
2023-04-17T04:17:08.866Z,30.73
2023-04-17T04:19:35.819Z,32.28
2023-04-17T04:22:03.359Z,31.73
2023-04-17T04:24:31.634Z,31.33
2023-04-17T04:27:04.623Z,34.10
2023-04-17T04:29:32.178Z,32.20
2023-04-17T04:31:59.401Z,33.70
2023-04-17T04:34:29.442Z,33.67
2023-04-17T04:36:56.912Z,32.08
2023-04-17T04:39:23.638Z,36.85
2023-04-17T04:41:51.482Z,31.35
2023-04-17T04:44:27.280Z,35.15
2023-04-17T04:46:55.429Z,35.55
2023-04-17T04:49:23.283Z,33.17
2023-04-17T04:51:50.050Z,34.97
2023-04-17T04:54:16.791Z,33.38
2023-04-17T04:56:44.932Z,36.30
2023-04-17T04:59:12.091Z,33.63
2023-04-17T05:01:39.783Z,34.50
2023-04-17T05:04:06.574Z,36.55
2023-04-17T05:06:33.374Z,33.88
2023-04-17T05:09:00.036Z,35.53
2023-04-17T05:11:26.633Z,38.00
2023-04-17T05:13:53.335Z,35.67
2023-04-17T05:16:20.020Z,34.20
2023-04-17T05:18:47.934Z,34.63
2023-04-17T05:21:14.532Z,33.97
2023-04-17T05:23:41.931Z,32.53
2023-04-17T05:26:08.651Z,33.78
2023-04-17T05:28:35.532Z,34.28
2023-04-17T05:31:02.288Z,33.15
2023-04-17T05:33:28.873Z,32.85
2023-04-17T05:35:56.282Z,32.17
2023-04-17T05:38:23.391Z,32.33
2023-04-17T05:40:53.285Z,30.80
2023-04-17T05:43:19.934Z,32.03
2023-04-17T05:45:47.583Z,27.92
2023-04-17T05:48:14.359Z,28.20
2023-04-17T05:50:41.133Z,32.65
2023-04-17T05:53:07.992Z,29.13
2023-04-17T05:55:34.666Z,30.98
2023-04-17T05:58:10.413Z,30.02
2023-04-17T06:00:48.961Z,26.83
2023-04-17T06:03:18.204Z,27.65
2023-04-17T06:05:47.010Z,27.45
2023-04-17T06:08:13.896Z,28.10
2023-04-17T06:10:40.608Z,25.95
2023-04-17T06:13:07.265Z,29.02
2023-04-17T06:15:33.930Z,27.23
2023-04-17T06:18:00.627Z,25.95
2023-04-17T06:20:27.427Z,26.75
2023-04-17T06:22:54.111Z,29.38
2023-04-17T06:25:21.061Z,26.55
2023-04-17T06:27:47.808Z,27.85
2023-04-17T06:30:14.549Z,26.77
2023-04-17T06:32:42.935Z,28.95
2023-04-17T06:35:11.165Z,26.45
2023-04-17T06:37:37.802Z,25.55
2023-04-17T06:40:05.327Z,27.00
2023-04-17T06:42:35.163Z,25.38
2023-04-17T06:45:02.134Z,26.08
2023-04-17T06:47:29.117Z,26.88
2023-04-17T06:49:57.864Z,28.23
2023-04-17T06:52:24.633Z,25.35
2023-04-17T06:54:55.196Z,26.27
2023-04-17T06:57:22.215Z,25.38
2023-04-17T06:59:48.950Z,27.05
2023-04-17T07:02:16.457Z,28.88
2023-04-17T07:04:43.453Z,28.75
2023-04-17T07:07:11.073Z,25.40
2023-04-17T07:09:37.883Z,26.83
2023-04-17T07:12:04.842Z,25.50
2023-04-17T07:14:31.427Z,25.63
2023-04-17T07:16:58.084Z,26.27
2023-04-17T07:19:24.863Z,27.33
2023-04-17T07:21:51.961Z,26.60
2023-04-17T07:24:18.535Z,24.98
2023-04-17T07:26:45.101Z,24.92
2023-04-17T07:29:12.033Z,25.55
2023-04-17T07:31:38.912Z,24.52
2023-04-17T07:34:05.559Z,24.63
2023-04-17T07:36:32.345Z,24.90
2023-04-17T07:38:58.940Z,24.40
2023-04-17T07:41:25.531Z,24.17
2023-04-17T07:43:52.218Z,25.83
2023-04-17T07:46:18.907Z,24.23
2023-04-17T07:48:46.395Z,24.65
2023-04-17T07:51:13.053Z,26.08
2023-04-17T07:53:40.068Z,22.75
2023-04-17T07:56:06.949Z,24.15
2023-04-17T07:58:35.629Z,26.77
2023-04-17T08:01:08.435Z,24.77
2023-04-17T08:03:35.320Z,25.60
2023-04-17T08:06:02.290Z,25.23
2023-04-17T08:08:28.888Z,25.65
2023-04-17T08:10:55.570Z,26.42
2023-04-17T08:13:22.204Z,28.10
2023-04-17T08:15:49.051Z,29.60
2023-04-17T08:18:15.821Z,29.80
2023-04-17T08:20:42.870Z,26.27
2023-04-17T08:23:09.476Z,22.60
2023-04-17T08:25:36.330Z,23.48
2023-04-17T08:28:03.127Z,19.95
2023-04-17T08:30:29.692Z,19.15
2023-04-17T08:32:57.466Z,21.00
2023-04-17T08:35:25.424Z,18.88
2023-04-17T08:37:52.113Z,17.50
2023-04-17T08:40:21.354Z,18.35
2023-04-17T08:42:48.255Z,18.63
2023-04-17T08:45:14.980Z,17.15
2023-04-17T08:47:42.988Z,14.93
2023-04-17T08:50:15.377Z,16.33
2023-04-17T08:52:43.559Z,16.55
2023-04-17T08:55:16.662Z,17.05
2023-04-17T08:58:04.324Z,17.60
2023-04-17T09:00:32.405Z,17.77
2023-04-17T09:03:00.270Z,18.40
2023-04-17T09:05:33.257Z,16.55
2023-04-17T09:08:07.464Z,14.25
2023-04-17T09:10:43.124Z,12.30
2023-04-17T09:13:12.091Z,11.95
2023-04-17T09:15:38.807Z,10.32
2023-04-17T09:18:05.676Z,9.93
2023-04-17T09:20:32.785Z,9.98
2023-04-17T09:23:02.537Z,9.43
2023-04-17T09:25:29.597Z,9.30
2023-04-17T09:28:14.667Z,8.68
2023-04-17T09:30:42.117Z,8.70
2023-04-17T09:33:10.638Z,6.88
2023-04-17T09:35:39.858Z,5.75
2023-04-17T09:38:07.138Z,5.47
2023-04-17T09:40:39.774Z,5.40
2023-04-17T09:43:09.918Z,5.43
2023-04-17T09:45:41.324Z,4.00
2023-04-17T09:48:10.147Z,4.13
2023-04-17T09:50:38.663Z,3.15
2023-04-17T09:53:07.937Z,2.90
2023-04-17T09:55:37.414Z,2.60
2023-04-17T09:58:06.243Z,2.63
2023-04-17T10:00:32.995Z,2.35
2023-04-17T10:03:00.318Z,2.22
2023-04-17T10:05:29.233Z,2.63
2023-04-17T10:07:56.713Z,2.33
2023-04-17T10:10:24.316Z,2.00
2023-04-17T10:12:54.163Z,1.90
2023-04-17T10:15:22.677Z,2.05
2023-04-17T10:17:49.963Z,2.03
2023-04-17T10:20:23.172Z,1.90
2023-04-17T10:22:56.141Z,1.58
2023-04-17T10:25:27.260Z,1.80
2023-04-17T10:27:58.440Z,2.00
2023-04-17T10:30:46.236Z,1.80
2023-04-17T10:33:12.978Z,2.00
2023-04-17T10:35:39.717Z,2.20
2023-04-17T10:38:07.756Z,2.08
2023-04-17T10:40:38.711Z,2.38
2023-04-17T10:43:13.269Z,2.50
2023-04-17T10:46:02.007Z,2.03
2023-04-17T10:48:34.886Z,2.20
2023-04-17T10:51:21.662Z,2.25
2023-04-17T10:53:56.076Z,2.22
2023-04-17T10:56:46.135Z,2.20
2023-04-17T10:59:14.966Z,2.53
2023-04-17T11:01:49.572Z,2.00
2023-04-17T11:04:34.123Z,1.70
2023-04-17T11:07:01.240Z,2.13
2023-04-17T11:09:29.615Z,2.30
2023-04-17T11:11:59.915Z,2.30
2023-04-17T11:14:27.865Z,2.30
2023-04-17T11:16:55.817Z,2.40
2023-04-17T11:19:24.757Z,2.28
2023-04-17T11:21:53.922Z,2.10
2023-04-17T11:24:28.234Z,2.17
2023-04-17T11:26:56.620Z,2.20
2023-04-17T11:29:25.194Z,2.22
2023-04-17T11:31:56.246Z,2.53
2023-04-17T11:34:23.134Z,2.55
2023-04-17T11:36:58.398Z,2.63
2023-04-17T11:39:28.705Z,2.83
2023-04-17T11:41:57.131Z,2.50
2023-04-17T11:44:26.157Z,2.90
2023-04-17T11:46:54.661Z,2.83
2023-04-17T11:49:29.452Z,3.42
2023-04-17T11:51:58.836Z,3.20
2023-04-17T11:54:37.195Z,3.40
2023-04-17T11:57:14.502Z,3.53
2023-04-17T11:59:47.322Z,3.22
2023-04-17T12:02:15.075Z,3.35
2023-04-17T12:04:42.165Z,3.40
2023-04-17T12:07:22.880Z,3.72
2023-04-17T12:09:57.596Z,3.25
2023-04-17T12:12:24.272Z,2.95
2023-04-17T12:14:51.391Z,2.88
2023-04-17T12:17:17.965Z,2.95
2023-04-17T12:19:45.261Z,3.67
2023-04-17T12:22:11.939Z,2.95
2023-04-17T12:24:38.560Z,3.88
2023-04-17T12:27:05.350Z,3.40
2023-04-17T12:29:42.999Z,3.72
2023-04-17T12:32:11.316Z,3.28
2023-04-17T12:34:38.013Z,2.83
2023-04-17T12:37:04.683Z,2.65
2023-04-17T12:39:32.653Z,2.72
2023-04-17T12:41:59.209Z,3.05
2023-04-17T12:44:25.994Z,2.97
2023-04-17T12:46:52.640Z,3.10
2023-04-17T12:49:20.376Z,2.63
2023-04-17T12:51:47.035Z,2.92
2023-04-17T12:54:13.894Z,2.90
2023-04-17T12:56:40.824Z,3.00
2023-04-17T12:59:07.459Z,2.78
2023-04-17T13:01:34.147Z,3.20
2023-04-17T13:04:01.111Z,3.40
2023-04-17T13:06:28.111Z,3.03
2023-04-17T13:08:54.872Z,3.30
2023-04-17T13:11:21.944Z,3.20
2023-04-17T13:13:48.674Z,3.78
2023-04-17T13:16:15.349Z,3.33
2023-04-17T13:18:42.076Z,3.33
2023-04-17T13:21:09.273Z,3.70
2023-04-17T13:23:35.943Z,3.90
2023-04-17T13:26:02.655Z,3.97
2023-04-17T13:28:29.228Z,4.00
2023-04-17T13:30:56.030Z,4.20
2023-04-17T13:33:22.842Z,3.72
2023-04-17T13:35:50.996Z,3.88
2023-04-17T13:38:17.615Z,4.00
2023-04-17T13:40:44.265Z,3.50
2023-04-17T13:43:11.564Z,3.58
2023-04-17T13:46:03.281Z,3.75
2023-04-17T13:48:32.771Z,3.67
2023-04-17T13:50:59.612Z,3.83
2023-04-17T13:53:32.307Z,3.53
2023-04-17T13:56:03.294Z,3.65
2023-04-17T13:58:30.036Z,3.67
2023-04-17T14:00:56.781Z,3.72
2023-04-17T14:03:32.449Z,3.55
2023-04-17T14:06:07.859Z,3.80
2023-04-17T14:08:34.616Z,3.60
2023-04-17T14:11:01.668Z,4.20
2023-04-17T14:13:33.639Z,3.90
2023-04-17T14:16:02.819Z,3.78
2023-04-17T14:18:29.686Z,4.18
2023-04-17T14:21:04.094Z,3.55
2023-04-17T14:23:31.052Z,3.80
2023-04-17T14:26:05.967Z,3.70
2023-04-17T14:28:34.691Z,3.83
2023-04-17T14:31:02.809Z,4.32
2023-04-17T14:33:29.642Z,4.07
2023-04-17T14:35:56.772Z,4.28
2023-04-17T14:38:24.217Z,3.92
2023-04-17T14:40:51.729Z,3.40
2023-04-17T14:43:24.419Z,3.50
2023-04-17T14:45:54.372Z,3.50
2023-04-17T14:48:21.035Z,3.10
2023-04-17T14:50:55.199Z,3.50
2023-04-17T14:53:24.236Z,3.47
2023-04-17T14:55:50.997Z,3.60
2023-04-17T14:58:17.607Z,3.45
2023-04-17T15:00:44.525Z,3.50
2023-04-17T15:03:11.566Z,3.92
2023-04-17T15:05:38.343Z,4.10
2023-04-17T15:08:10.448Z,3.72
2023-04-17T15:10:47.919Z,3.90
2023-04-17T15:13:24.729Z,3.50
2023-04-17T15:15:51.341Z,4.22
2023-04-17T15:18:17.985Z,4.05
2023-04-17T15:20:52.822Z,3.60
2023-04-17T15:23:19.953Z,3.80
2023-04-17T15:25:54.065Z,3.92
2023-04-17T15:28:21.292Z,3.88
2023-04-17T15:30:47.939Z,3.92
2023-04-17T15:33:14.721Z,4.07
2023-04-17T15:35:42.032Z,4.05
2023-04-17T15:38:13.953Z,4.30
2023-04-17T15:40:43.391Z,4.57
2023-04-17T15:43:11.033Z,4.15
2023-04-17T15:45:43.934Z,4.38
2023-04-17T15:48:10.756Z,4.22
2023-04-17T15:50:41.259Z,4.50
2023-04-17T15:53:09.027Z,3.90
2023-04-17T15:55:38.752Z,4.10
2023-04-17T15:58:08.642Z,4.30
2023-04-17T16:00:41.084Z,4.00
2023-04-17T16:03:14.394Z,4.35
2023-04-17T16:05:44.093Z,4.22
2023-04-17T16:08:18.608Z,4.45
2023-04-17T16:10:48.440Z,3.85
2023-04-17T16:13:18.433Z,4.03
2023-04-17T16:15:51.982Z,4.30
2023-04-17T16:18:18.902Z,5.20
2023-04-17T16:20:46.269Z,4.80
2023-04-17T16:23:13.003Z,5.20
2023-04-17T16:25:39.771Z,5.55
2023-04-17T16:28:06.485Z,4.22
2023-04-17T16:30:33.219Z,5.00
2023-04-17T16:32:59.943Z,4.57
2023-04-17T16:35:26.875Z,4.43
2023-04-17T16:37:53.540Z,4.40
2023-04-17T16:40:20.243Z,4.90
2023-04-17T16:42:46.908Z,4.68
2023-04-17T16:45:13.732Z,7.75
2023-04-17T16:47:40.467Z,6.60
2023-04-17T16:50:09.201Z,4.47
2023-04-17T16:52:37.193Z,5.50
2023-04-17T16:55:04.075Z,4.90
2023-04-17T16:57:31.065Z,5.25
2023-04-17T16:59:57.675Z,5.25
2023-04-17T17:02:24.336Z,5.50
2023-04-17T17:04:51.177Z,8.85
2023-04-17T17:07:17.949Z,6.90
2023-04-17T17:09:44.650Z,6.88
2023-04-17T17:12:11.410Z,5.78
2023-04-17T17:14:38.035Z,7.15
2023-04-17T17:17:04.630Z,5.30
2023-04-17T17:19:31.241Z,4.82
2023-04-17T17:21:57.968Z,6.47
2023-04-17T17:24:24.627Z,5.80
2023-04-17T17:26:51.374Z,4.78
2023-04-17T17:29:18.306Z,5.40
2023-04-17T17:31:45.200Z,5.93
2023-04-17T17:34:25.289Z,6.70
2023-04-17T17:36:53.499Z,5.63
2023-04-17T17:39:21.693Z,7.07
2023-04-17T17:41:48.642Z,5.47
2023-04-17T17:44:15.453Z,6.07
2023-04-17T17:46:42.173Z,5.97
2023-04-17T17:49:09.190Z,4.90
2023-04-17T17:51:37.019Z,5.35
2023-04-17T17:54:03.777Z,5.20
2023-04-17T17:56:30.522Z,5.75
2023-04-17T17:58:57.251Z,5.90
2023-04-17T18:01:24.845Z,5.28
2023-04-17T18:03:52.819Z,5.40
2023-04-17T18:06:19.989Z,5.20
2023-04-17T18:08:46.797Z,5.20
2023-04-17T18:11:13.793Z,4.78
2023-04-17T18:13:40.577Z,5.65
2023-04-17T18:16:07.555Z,5.05
2023-04-17T18:18:34.357Z,5.05
2023-04-17T18:21:12.156Z,5.43
2023-04-17T18:23:38.795Z,5.90
2023-04-17T18:26:05.551Z,7.88
2023-04-17T18:28:33.074Z,7.32
2023-04-17T18:30:59.765Z,6.15
2023-04-17T18:33:28.728Z,7.75
2023-04-17T18:35:55.437Z,8.07
2023-04-17T18:38:22.075Z,7.07
2023-04-17T18:40:53.928Z,8.32
2023-04-17T18:43:20.634Z,7.57
2023-04-17T18:45:47.248Z,9.70
2023-04-17T18:48:13.956Z,11.45
2023-04-17T18:50:40.625Z,7.65
2023-04-17T18:53:07.388Z,7.50
2023-04-17T18:55:37.000Z,6.72
2023-04-17T18:58:04.655Z,6.93
2023-04-17T19:00:31.971Z,7.95
2023-04-17T19:02:59.016Z,7.00
2023-04-17T19:05:27.056Z,5.90
2023-04-17T19:07:53.720Z,6.10
2023-04-17T19:10:20.386Z,6.20
2023-04-17T19:12:47.322Z,6.82
2023-04-17T19:15:14.105Z,6.60
2023-04-17T19:17:40.990Z,5.72
2023-04-17T19:20:08.707Z,5.30
2023-04-17T19:22:35.321Z,5.40
2023-04-17T19:25:02.059Z,5.18
2023-04-17T19:27:28.862Z,5.65
2023-04-17T19:29:56.798Z,5.85
2023-04-17T19:32:23.505Z,6.47
2023-04-17T19:34:50.356Z,5.80
2023-04-17T19:37:16.935Z,5.45
2023-04-17T19:39:43.542Z,6.03
2023-04-17T19:42:10.112Z,6.22
2023-04-17T19:44:36.704Z,5.72
2023-04-17T19:47:04.408Z,6.03
2023-04-17T19:49:31.463Z,6.00
2023-04-17T19:51:59.124Z,6.03
2023-04-17T19:54:26.694Z,6.32
2023-04-17T19:56:53.474Z,6.13
2023-04-17T19:59:20.087Z,6.22
2023-04-17T20:01:46.877Z,7.00
2023-04-17T20:04:13.718Z,6.68
2023-04-17T20:06:40.874Z,7.35
2023-04-17T20:09:10.380Z,7.13
2023-04-17T20:11:38.084Z,6.55
2023-04-17T20:14:08.977Z,7.50
2023-04-17T20:16:35.944Z,7.13
2023-04-17T20:19:05.188Z,7.20
2023-04-17T20:21:33.256Z,7.22
2023-04-17T20:24:02.416Z,7.18
2023-04-17T20:26:29.182Z,7.53
2023-04-17T20:28:56.045Z,7.22
2023-04-17T20:31:23.024Z,7.53
2023-04-17T20:33:50.144Z,7.80
2023-04-17T20:36:19.329Z,7.75
2023-04-17T20:38:50.223Z,7.95
2023-04-17T20:41:16.790Z,9.13
2023-04-17T20:43:56.959Z,8.88
2023-04-17T20:46:23.897Z,10.50
2023-04-17T20:48:53.546Z,11.23
2023-04-17T20:51:24.698Z,9.50
2023-04-17T20:53:54.604Z,9.82
2023-04-17T20:56:27.964Z,9.07
2023-04-17T20:58:58.619Z,8.70
2023-04-17T21:01:30.972Z,8.43
2023-04-17T21:03:57.985Z,8.10
2023-04-17T21:06:25.935Z,7.03
2023-04-17T21:08:55.361Z,7.57
2023-04-17T21:11:22.078Z,7.72
2023-04-17T21:13:49.872Z,7.85
2023-04-17T21:16:23.747Z,8.07
2023-04-17T21:18:53.705Z,8.48
2023-04-17T21:21:20.795Z,8.23
2023-04-17T21:23:47.571Z,8.15
2023-04-17T21:26:14.268Z,8.07
2023-04-17T21:28:40.948Z,8.10
2023-04-17T21:31:10.108Z,8.07
2023-04-17T21:33:36.954Z,7.97
2023-04-17T21:36:03.909Z,7.45
2023-04-17T21:38:30.783Z,6.38
2023-04-17T21:40:58.056Z,6.95
2023-04-17T21:43:24.854Z,7.53
2023-04-17T21:45:51.643Z,7.45
2023-04-17T21:48:18.457Z,7.50
2023-04-17T21:50:45.214Z,7.38
2023-04-17T21:53:12.008Z,7.57
2023-04-17T21:55:38.808Z,7.32
2023-04-17T21:58:05.574Z,7.63
2023-04-17T22:00:32.281Z,8.10
2023-04-17T22:02:59.345Z,9.05
2023-04-17T22:05:26.126Z,8.85
2023-04-17T22:07:55.347Z,9.32
2023-04-17T22:10:23.389Z,9.30
2023-04-17T22:12:50.580Z,8.82
2023-04-17T22:15:17.557Z,8.23
2023-04-17T22:17:44.580Z,8.45
2023-04-17T22:20:12.065Z,9.45
2023-04-17T22:22:38.772Z,10.00
2023-04-17T22:25:05.909Z,9.88
2023-04-17T22:27:32.577Z,10.55
2023-04-17T22:29:59.220Z,10.57
2023-04-17T22:32:25.920Z,11.48
2023-04-17T22:34:52.516Z,12.20
2023-04-17T22:37:19.355Z,12.18
2023-04-17T22:39:46.259Z,12.38
2023-04-17T22:42:12.857Z,12.68
2023-04-17T22:44:39.431Z,11.73
2023-04-17T22:47:06.125Z,10.63
2023-04-17T22:49:37.865Z,10.80
2023-04-17T22:52:06.060Z,10.30
2023-04-17T22:54:33.705Z,10.10
2023-04-17T22:57:00.470Z,10.00
2023-04-17T22:59:27.054Z,10.13
2023-04-17T23:01:54.830Z,8.80
2023-04-17T23:04:23.039Z,9.60
2023-04-17T23:06:50.138Z,9.52
2023-04-17T23:09:16.807Z,9.68
2023-04-17T23:11:43.650Z,8.88
2023-04-17T23:14:11.188Z,8.63
2023-04-17T23:16:37.979Z,8.65
2023-04-17T23:19:04.734Z,9.25
2023-04-17T23:21:31.472Z,9.00
2023-04-17T23:23:58.180Z,8.57
2023-04-17T23:26:25.822Z,8.57
2023-04-17T23:28:52.658Z,8.88
2023-04-17T23:31:19.374Z,8.82
2023-04-17T23:33:46.036Z,8.65
2023-04-17T23:36:13.565Z,9.40
2023-04-17T23:38:40.340Z,9.00
2023-04-17T23:41:06.954Z,8.82
2023-04-17T23:43:33.613Z,8.77
2023-04-17T23:46:00.809Z,8.63
2023-04-17T23:48:28.141Z,8.63
2023-04-17T23:50:55.125Z,7.80
2023-04-17T23:53:21.810Z,8.98
2023-04-17T23:55:48.405Z,8.13
2023-04-17T23:58:15.086Z,9.63
